TRA841G EHRD-LGKO
Flight info
| Callsign | TRA841G |
|---|---|
| Flight time | N/A |
| Altitude | 37000 |
| Route | LUNIX Z739 MISGO DCT TIVUN DCT NEGIX DCT DINKU DCT BESNI DCT LATLO DCT OBEDI DCT GORPA DCT DEVUL DCT REMSO DCT MEDUX UM867 KOGAT DCT ERANA UL737 TSL UN130 MES UN139 LURUS L995 KOPAR |
| Aircraft | B738/M-SDE2E3FGHIJ1RWXYZ/LB1 |
Departure
| Time | 2026-05-04 12:59 |
|---|---|
| Airport | Rotterdam The Hague Airport (EHRD) |
Arrival
| Time | N/A |
|---|---|
| Airport | Kos International Airport "Ippokratis" (LGKO) |
| Time | Latitude | Longitude | Altitude | Speed | Heading |
|---|---|---|---|---|---|
| 2026-05-04 11:59 | 51.94938 | 4.43587 | -7 ft | 0 kts | 327° |
| 2026-05-04 12:53 | 51.94942 | 4.43583 | -7 ft | 2 kts | 327° |
| 2026-05-04 12:53 | 51.94962 | 4.43567 | -7 ft | 4 kts | 348° |
| 2026-05-04 12:53 | 51.94992 | 4.43597 | -7 ft | 7 kts | 50° |
| 2026-05-04 12:53 | 51.95022 | 4.43673 | -7 ft | 10 kts | 57° |
| 2026-05-04 12:54 | 51.95082 | 4.43681 | -7 ft | 11 kts | 327° |
| 2026-05-04 12:54 | 51.95150 | 4.43609 | -7 ft | 13 kts | 327° |
| 2026-05-04 12:54 | 51.95226 | 4.43529 | -6 ft | 8 kts | 327° |
| 2026-05-04 12:54 | 51.95285 | 4.43521 | -6 ft | 10 kts | 32° |
| 2026-05-04 12:55 | 51.95330 | 4.43620 | -6 ft | 12 kts | 57° |
| 2026-05-04 12:55 | 51.95385 | 4.43759 | -6 ft | 17 kts | 57° |
| 2026-05-04 12:55 | 51.95455 | 4.43934 | -6 ft | 20 kts | 57° |
| 2026-05-04 12:55 | 51.95537 | 4.44138 | -6 ft | 23 kts | 57° |
| 2026-05-04 12:56 | 51.95628 | 4.44365 | -6 ft | 25 kts | 57° |
| 2026-05-04 12:56 | 51.95727 | 4.44612 | -6 ft | 27 kts | 57° |
| 2026-05-04 12:56 | 51.95827 | 4.44862 | -6 ft | 26 kts | 57° |
| 2026-05-04 12:56 | 51.95922 | 4.45097 | -6 ft | 24 kts | 57° |
| 2026-05-04 12:57 | 51.96010 | 4.45317 | -6 ft | 23 kts | 57° |
| 2026-05-04 12:57 | 51.96095 | 4.45530 | -6 ft | 22 kts | 57° |
| 2026-05-04 12:57 | 51.96200 | 4.45637 | -6 ft | 16 kts | 337° |
| 2026-05-04 12:57 | 51.96264 | 4.45497 | -6 ft | 14 kts | 284° |
| 2026-05-04 12:58 | 51.96232 | 4.45382 | -6 ft | 0 kts | 237° |
| 2026-05-04 12:58 | 51.96194 | 4.45286 | -6 ft | 37 kts | 237° |
| 2026-05-04 12:58 | 51.95907 | 4.44569 | -6 ft | 112 kts | 237° |
| 2026-05-04 12:59 | 51.95371 | 4.43222 | 90 ft | 163 kts | 239° |
| 2026-05-04 12:59 | 51.94765 | 4.41619 | 848 ft | 167 kts | 246° |
| 2026-05-04 12:59 | 51.94646 | 4.39793 | 1718 ft | 164 kts | 289° |
| 2026-05-04 12:59 | 51.95327 | 4.38226 | 2243 ft | 189 kts | 325° |
| 2026-05-04 13:00 | 51.96663 | 4.37649 | 2512 ft | 220 kts | 5° |
| 2026-05-04 13:00 | 51.98099 | 4.38785 | 2907 ft | 239 kts | 43° |
| 2026-05-04 13:00 | 51.99298 | 4.40718 | 3640 ft | 246 kts | 45° |
| 2026-05-04 13:00 | 52.00201 | 4.42997 | 4477 ft | 249 kts | 75° |
| 2026-05-04 13:01 | 52.00554 | 4.45854 | 5033 ft | 266 kts | 80° |
| 2026-05-04 13:01 | 52.00893 | 4.48853 | 5773 ft | 273 kts | 79° |
| 2026-05-04 13:01 | 52.01253 | 4.51860 | 6633 ft | 277 kts | 79° |
| 2026-05-04 13:01 | 52.01740 | 4.54939 | 7443 ft | 281 kts | 64° |
| 2026-05-04 13:02 | 52.02897 | 4.57503 | 8257 ft | 284 kts | 46° |
| 2026-05-04 13:02 | 52.04277 | 4.59823 | 9083 ft | 288 kts | 45° |
| 2026-05-04 13:02 | 52.05696 | 4.62154 | 9897 ft | 292 kts | 45° |
| 2026-05-04 13:02 | 52.07144 | 4.64541 | 10452 ft | 305 kts | 45° |
| 2026-05-04 13:03 | 52.08671 | 4.67079 | 10626 ft | 330 kts | 45° |
| 2026-05-04 13:03 | 52.10332 | 4.69861 | 11049 ft | 344 kts | 46° |
| 2026-05-04 13:03 | 52.11987 | 4.72649 | 11762 ft | 349 kts | 45° |
| 2026-05-04 13:03 | 52.13703 | 4.75548 | 12511 ft | 353 kts | 45° |
| 2026-05-04 13:04 | 52.15340 | 4.78569 | 13225 ft | 359 kts | 57° |
| 2026-05-04 13:04 | 52.16353 | 4.82292 | 13910 ft | 364 kts | 72° |
| 2026-05-04 13:04 | 52.17104 | 4.86253 | 14576 ft | 368 kts | 73° |
| 2026-05-04 13:04 | 52.17829 | 4.90270 | 15227 ft | 372 kts | 74° |
| 2026-05-04 13:05 | 52.18564 | 4.94332 | 15885 ft | 376 kts | 73° |